Kenwood, Ohio
Current Conditions -  °F | °C
As of 8:24 AM on Thursday 23 Oct 2014 (Local Time) from KLUK Reporting Station
Light Fog Light Fog  
Wind Chill: 37°   Ceiling: Unl
Heat Index: 37°   Visibility: 10mi
Dew Point: 37°   Wind: 0mph
Humidity: 100%   Direction: NA
Pressure: 30.27"   Gusts: NA
Location:  39.2094°N, 84.3952°W
Report Text: KLUK 231224Z 00000KT 10SM R21L/0800VP6000FT BCFG CLR 03/03 A3027 RMK AO2 T00280028
Loading
Personal Weather Stations






























Interactive Weather Map
Tropical Storm Tracking
New forecast layout! Learn more

10-Day Weather Forecast

Advertisements
Track Severe Weather on mobile